Airfield :
LOGIN :

Register | Disclaimer

   EN    FR    IT 

 










Legend :    VFR   Marginal VFR   IFR   Intensive IFR   Very Intensive IFR
Visi :
Ceiling :
>= 8 km
>= 3000ft
5 to 8 km
1000 to 3000 ft
1500m to 5 km
500 to 1000 ft
800 to 1500m
200 to 500 ft
< 800m
< 200 ft
Symbols :   Thunderstorms  Fog  Heavy snow  Heavy precipitations  Wind > 20 kt
SIGMETs :     Misc.  Thunderstorms  Icing  Turbulence  Mountain Waves  Volcanic Ashes






- Airport Elevation : 359 ft
- IATA code : BVA


LFOB - Beauvais

CURRENT METAR :
  • 230130Z AUTO 15002KT 9999 FEW027 SCT034 OVC062 14/12 Q1008 TEMPO BKN010

EXPIRED METARs :
  • 230100Z AUTO 13003KT 9999 FEW022 BKN070 BKN130 13/12 Q1008 TEMPO BKN010
  • 230030Z AUTO 13003KT 9999 FEW022 SCT070 OVC130 14/12 Q1008 TEMPO BKN010
  • 230000Z AUTO 14002KT CAVOK 14/12 Q1008 TEMPO BKN010
  • 222330Z AUTO 13004KT CAVOK 14/12 Q1008 TEMPO BKN010

TAF TAF LFOB
Valid from the 23 at 00:00 until the 24 at 00:00 UTC


222300Z 2300/2324 VRB02KT CAVOK
TEMPO 2300/2306 BKN010
BECMG 2305/2307 20010KT BKN012
BECMG 2308/2310 BKN025
TEMPO 2312/2320 21015G25KT 3000 SHRA BKN025TCU
TEMPO 2320/2323 2000 SHRA BKN025CB
ATIS : +33 3 44 11 49 28



MET'MAP, your aeronautical weather chart ! - Copyright ORBIFLY December 2007 - Disclaimer

ORBIFLY MET'MAP TEAM :

Programming & Development : Alexandra Zaïnal
Concept & original design : Baudouin d'Aumeries
Assistance for programming : Marc-Olivier Méhu
Technical & hardware support : Manuel Goepfert

Contact : metmap@orbifly.com




SOURCES & CREDITS :

   NOAA